Time;durP1;ratioP1;P1;durP2;ratioP2;P2;SDS_P1;SDS_P2;PMS_P1;PMS_P2;Temp;Humidity;BMP_temperature;BMP_pressure;BME280_temperature;BME280_humidity;BME280_pressure;Samples;Min_cycle;Max_cycle;Signal;HPM_P1;HPM_P2
2022/07/11 00:01:20;;;;;;;2.40;1.45;;;21.50;81.80;;;;;;6218828;28;88831;-64
2022/07/11 00:04:22;;;;;;;1.98;1.40;;;21.50;81.50;;;;;;6225209;28;89015;-64
2022/07/11 00:07:24;;;;;;;1.55;1.33;;;21.50;81.50;;;;;;6216416;28;89275;-64
2022/07/11 00:10:26;;;;;;;3.30;1.90;;;21.50;81.30;;;;;;6210082;28;89069;-64
2022/07/11 00:13:28;;;;;;;1.73;1.40;;;21.50;81.20;;;;;;6219510;28;89471;-64
2022/07/11 00:16:32;;;;;;;2.65;1.70;;;21.50;81.40;;;;;;6230727;28;87926;-64
2022/07/11 00:19:34;;;;;;;2.53;1.40;;;21.40;81.30;;;;;;6229688;28;89283;-65
2022/07/11 00:22:36;;;;;;;2.28;1.38;;;21.40;81.10;;;;;;6206491;28;89490;-64
2022/07/11 00:25:38;;;;;;;2.92;1.23;;;21.40;81.40;;;;;;6210822;28;88093;-64
2022/07/11 00:28:40;;;;;;;2.42;1.38;;;21.50;81.50;;;;;;6223682;28;88441;-64
2022/07/11 00:31:44;;;;;;;1.45;1.23;;;21.50;81.50;;;;;;6219145;28;87704;-64
2022/07/11 00:34:46;;;;;;;1.80;1.20;;;21.50;81.20;;;;;;6207790;28;89003;-64
2022/07/11 00:37:48;;;;;;;2.13;1.25;;;21.40;81.10;;;;;;6222065;28;90083;-64
2022/07/11 00:40:49;;;;;;;1.70;1.30;;;21.50;82.00;;;;;;6230866;28;89208;-64
2022/07/11 00:43:53;;;;;;;1.42;1.15;;;21.50;81.10;;;;;;6230299;28;89026;-64
2022/07/11 00:46:56;;;;;;;2.25;1.40;;;21.40;81.20;;;;;;6227673;28;87936;-64
2022/07/11 00:49:59;;;;;;;2.60;1.70;;;21.40;81.30;;;;;;6231366;28;89070;-64
2022/07/11 00:53:01;;;;;;;2.38;1.40;;;21.40;81.50;;;;;;6221122;28;88134;-64
2022/07/11 00:56:04;;;;;;;2.20;1.30;;;21.40;81.80;;;;;;6223126;28;89132;-64
2022/07/11 00:59:06;;;;;;;1.90;1.40;;;21.40;81.80;;;;;;6231299;28;88248;-64
2022/07/11 01:02:09;;;;;;;2.33;1.50;;;21.40;82.00;;;;;;6233647;28;89072;-64
2022/07/11 01:05:11;;;;;;;2.55;1.50;;;21.40;82.20;;;;;;6231543;28;89084;-64
2022/07/11 01:08:13;;;;;;;2.08;1.30;;;21.40;82.50;;;;;;6230669;28;90031;-64
2022/07/11 01:11:17;;;;;;;2.72;1.75;;;21.40;82.50;;;;;;6217870;28;89100;-64
2022/07/11 01:14:19;;;;;;;2.20;1.40;;;21.40;82.70;;;;;;6225264;28;89395;-64
2022/07/11 01:17:22;;;;;;;1.63;1.38;;;21.40;82.80;;;;;;6212366;28;89009;-64
2022/07/11 01:20:24;;;;;;;1.83;1.38;;;21.40;82.70;;;;;;6227082;28;89083;-64
2022/07/11 01:23:28;;;;;;;2.15;1.52;;;21.40;82.70;;;;;;6227579;28;89055;-64
2022/07/11 01:26:32;;;;;;;2.03;1.42;;;21.40;82.80;;;;;;6224417;28;88056;-64
2022/07/11 01:29:34;;;;;;;1.80;1.48;;;21.40;82.90;;;;;;6219410;28;88484;-63
2022/07/11 01:32:36;;;;;;;2.22;1.55;;;21.40;83.00;;;;;;6208248;28;88976;-64
2022/07/11 01:35:38;;;;;;;1.65;1.40;;;21.40;83.20;;;;;;6222082;28;89079;-63
2022/07/11 01:38:41;;;;;;;1.73;1.30;;;21.40;83.30;;;;;;6221245;28;89986;-64
2022/07/11 01:41:43;;;;;;;1.48;1.20;;;21.40;83.30;;;;;;6227369;28;89110;-64
2022/07/11 01:44:45;;;;;;;1.60;1.20;;;21.40;83.50;;;;;;6228352;28;89061;-64
2022/07/11 01:47:48;;;;;;;1.30;1.20;;;21.40;83.70;;;;;;6232323;28;89029;-64
2022/07/11 01:50:50;;;;;;;1.55;1.40;;;21.40;83.60;;;;;;6229897;28;89279;-64
2022/07/11 01:53:55;;;;;;;2.63;1.67;;;21.40;83.60;;;;;;6230791;28;89082;-64
2022/07/11 01:56:57;;;;;;;2.58;1.65;;;21.40;83.80;;;;;;6220021;28;88918;-64
2022/07/11 01:59:59;;;;;;;2.10;1.60;;;21.40;83.90;;;;;;6232045;28;88439;-64
2022/07/11 02:03:01;;;;;;;1.77;1.48;;;21.40;84.10;;;;;;6244936;27;89079;-64
2022/07/11 02:06:03;;;;;;;2.10;1.33;;;21.30;84.00;;;;;;6232266;28;89055;-64
2022/07/11 02:09:06;;;;;;;3.45;1.95;;;21.40;84.00;;;;;;6226672;28;90053;-64
2022/07/11 02:12:09;;;;;;;2.05;1.27;;;21.40;83.80;;;;;;6228428;28;89049;-64
2022/07/11 02:15:11;;;;;;;2.10;1.20;;;21.30;83.80;;;;;;6230201;28;89159;-65
2022/07/11 02:18:14;;;;;;;2.08;1.40;;;21.40;83.70;;;;;;6227830;28;89338;-64
2022/07/11 02:21:16;;;;;;;1.65;1.20;;;21.40;83.70;;;;;;6220574;28;89324;-65
2022/07/11 02:24:19;;;;;;;2.35;1.58;;;21.30;83.80;;;;;;6230835;28;87924;-64
2022/07/11 02:27:21;;;;;;;1.75;1.30;;;21.30;83.70;;;;;;6219657;28;89379;-64
2022/07/11 02:30:23;;;;;;;2.17;1.45;;;21.30;83.80;;;;;;6211967;28;88260;-64
2022/07/11 02:33:25;;;;;;;2.38;1.40;;;21.30;83.70;;;;;;6226222;28;87907;-64
2022/07/11 02:36:27;;;;;;;2.33;1.20;;;21.40;83.60;;;;;;6231742;28;88549;-64
2022/07/11 02:39:31;;;;;;;2.78;1.50;;;21.40;83.80;;;;;;6228170;28;91668;-64
2022/07/11 02:42:33;;;;;;;2.33;1.50;;;21.30;83.60;;;;;;6209196;28;89231;-64
2022/07/11 02:45:36;;;;;;;1.48;1.20;;;21.30;83.40;;;;;;6231984;28;89143;-64
2022/07/11 02:48:38;;;;;;;1.55;1.10;;;21.30;83.40;;;;;;6231150;28;89101;-64
2022/07/11 02:51:40;;;;;;;1.42;1.17;;;21.30;83.50;;;;;;6230569;28;89153;-64
2022/07/11 02:54:44;;;;;;;1.45;1.10;;;21.30;83.40;;;;;;6230856;28;88961;-64
2022/07/11 02:57:46;;;;;;;1.50;1.10;;;21.30;83.40;;;;;;6208413;28;88015;-64
2022/07/11 03:00:48;;;;;;;2.67;1.20;;;21.30;83.60;;;;;;6218732;28;88561;-64
2022/07/11 03:03:50;;;;;;;1.70;1.25;;;21.30;83.40;;;;;;6231915;28;89099;-64
2022/07/11 03:06:53;;;;;;;1.42;1.15;;;21.30;83.40;;;;;;6230845;28;89092;-64
2022/07/11 03:09:57;;;;;;;1.42;1.15;;;21.30;83.70;;;;;;6213463;28;89991;-64
2022/07/11 03:12:59;;;;;;;1.63;1.17;;;21.30;83.70;;;;;;6222128;28;88982;-64
2022/07/11 03:16:01;;;;;;;1.75;1.30;;;21.30;83.80;;;;;;6213398;28;89327;-64
2022/07/11 03:19:03;;;;;;;2.05;1.30;;;21.30;83.80;;;;;;6229025;28;89046;-64
2022/07/11 03:22:05;;;;;;;1.63;1.27;;;21.30;83.80;;;;;;6219839;28;89062;-64
2022/07/11 03:25:10;;;;;;;2.15;1.40;;;21.30;83.90;;;;;;6229829;28;89908;-63
2022/07/11 03:28:11;;;;;;;1.45;1.15;;;21.20;83.80;;;;;;6216410;28;89303;-64
2022/07/11 03:31:13;;;;;;;1.77;1.23;;;21.30;83.90;;;;;;6214139;28;88350;-64
2022/07/11 03:34:15;;;;;;;1.70;1.10;;;21.30;83.80;;;;;;6221571;28;89051;-64
2022/07/11 03:37:17;;;;;;;1.13;1.02;;;21.30;83.80;;;;;;6226412;28;89095;-64
2022/07/11 03:40:21;;;;;;;2.97;1.50;;;21.30;84.00;;;;;;6221384;28;88900;-64
2022/07/11 03:43:23;;;;;;;1.80;1.35;;;21.20;83.90;;;;;;6230542;28;89391;-64
2022/07/11 03:46:25;;;;;;;2.35;1.10;;;21.20;83.90;;;;;;6232258;28;89073;-64
2022/07/11 03:49:27;;;;;;;1.75;1.00;;;21.20;83.90;;;;;;6228590;28;88096;-63
2022/07/11 03:52:29;;;;;;;2.17;1.10;;;21.20;83.80;;;;;;6221527;28;89394;-64
2022/07/11 03:55:33;;;;;;;1.80;1.23;;;21.20;83.70;;;;;;6219694;28;88054;-64
2022/07/11 03:58:35;;;;;;;1.60;1.08;;;21.20;83.80;;;;;;6216278;28;89124;-64
2022/07/11 04:01:37;;;;;;;1.73;1.30;;;21.20;83.70;;;;;;6223192;28;88291;-64
2022/07/11 04:04:39;;;;;;;1.30;1.15;;;21.20;83.50;;;;;;6213710;28;89010;-64
2022/07/11 04:07:42;;;;;;;1.17;1.00;;;21.20;83.40;;;;;;6230764;28;89052;-64
2022/07/11 04:10:46;;;;;;;2.40;1.30;;;21.20;83.40;;;;;;6228273;28;88827;-64
2022/07/11 04:13:48;;;;;;;2.08;1.20;;;21.20;83.40;;;;;;6222466;28;89349;-64
2022/07/11 04:16:49;;;;;;;1.50;1.10;;;21.20;83.50;;;;;;6221096;28;89245;-63
2022/07/11 04:19:51;;;;;;;1.90;1.27;;;21.20;83.50;;;;;;6225467;28;89458;-64
2022/07/11 04:22:53;;;;;;;2.00;1.10;;;21.20;83.40;;;;;;6217136;28;89061;-64
2022/07/11 04:25:57;;;;;;;1.83;1.15;;;21.20;83.50;;;;;;6224838;28;89423;-65
2022/07/11 04:28:59;;;;;;;1.50;1.30;;;21.20;83.70;;;;;;6227980;28;89535;-64
2022/07/11 04:32:01;;;;;;;2.95;1.63;;;21.20;83.80;;;;;;6219268;28;88340;-64
2022/07/11 04:35:03;;;;;;;2.20;1.30;;;21.20;83.90;;;;;;6223545;28;88099;-63
2022/07/11 04:38:05;;;;;;;1.73;1.00;;;21.10;83.90;;;;;;6222305;28;87985;-64
2022/07/11 04:41:08;;;;;;;1.50;1.30;;;21.20;83.90;;;;;;6222479;28;90004;-64
2022/07/11 04:44:10;;;;;;;2.55;1.40;;;21.20;83.70;;;;;;6231371;28;89409;-64
2022/07/11 04:47:12;;;;;;;2.03;1.30;;;21.20;83.40;;;;;;6219746;28;88948;-64
2022/07/11 04:50:14;;;;;;;2.67;1.30;;;21.20;83.30;;;;;;6227311;28;89109;-61
2022/07/11 04:53:16;;;;;;;3.35;1.40;;;21.20;83.00;;;;;;6218794;28;89434;-64
2022/07/11 04:56:19;;;;;;;1.77;1.40;;;21.20;82.70;;;;;;6217805;28;89101;-64
2022/07/11 04:59:22;;;;;;;2.42;1.48;;;21.20;83.20;;;;;;6222520;28;89051;-64
2022/07/11 05:02:24;;;;;;;1.67;1.40;;;21.20;83.60;;;;;;6211639;28;88647;-64
2022/07/11 05:05:27;;;;;;;3.17;1.27;;;21.20;83.80;;;;;;6214143;28;89015;-64
2022/07/11 05:08:29;;;;;;;2.45;1.40;;;21.20;84.00;;;;;;6220850;28;89081;-65
2022/07/11 05:11:33;;;;;;;2.60;1.65;;;21.20;84.00;;;;;;6216397;28;89907;-64
2022/07/11 05:14:35;;;;;;;1.63;1.30;;;21.20;83.70;;;;;;6213642;28;89287;-64
2022/07/11 05:17:37;;;;;;;2.20;1.55;;;21.20;83.70;;;;;;6217578;28;89069;-64
2022/07/11 05:20:39;;;;;;;1.45;1.15;;;21.20;83.60;;;;;;6216767;28;89126;-64
2022/07/11 05:23:41;;;;;;;1.38;1.15;;;21.20;83.60;;;;;;6220885;28;89127;-64
2022/07/11 05:26:46;;;;;;;1.65;1.38;;;21.20;83.70;;;;;;6218988;28;87658;-64
2022/07/11 05:29:48;;;;;;;2.22;1.48;;;21.30;83.70;;;;;;6219805;28;89151;-64
2022/07/11 05:32:50;;;;;;;16.27;2.60;;;21.30;83.10;;;;;;6225974;28;88351;-64
2022/07/11 05:35:52;;;;;;;5.93;2.42;;;21.30;83.10;;;;;;6230639;28;89132;-64
2022/07/11 05:38:54;;;;;;;3.95;1.90;;;21.20;84.30;;;;;;6219002;28;87761;-64
2022/07/11 05:41:58;;;;;;;4.65;1.80;;;21.20;83.40;;;;;;6232073;28;89971;-64
2022/07/11 05:45:00;;;;;;;2.55;1.75;;;21.20;83.60;;;;;;6231540;28;89098;-64
2022/07/11 05:48:02;;;;;;;3.78;2.03;;;21.20;83.70;;;;;;6225104;28;89872;-64
2022/07/11 05:51:04;;;;;;;4.25;1.70;;;21.20;83.90;;;;;;6228195;28;89192;-64
2022/07/11 05:54:06;;;;;;;4.78;2.22;;;21.20;84.10;;;;;;6216243;28;89425;-64
2022/07/11 05:57:10;;;;;;;3.03;1.80;;;21.20;84.30;;;;;;6221569;28;89116;-64
2022/07/11 06:00:14;;;;;;;2.25;1.55;;;21.20;84.30;;;;;;6232116;28;89092;-64
2022/07/11 06:03:16;;;;;;;3.85;1.80;;;21.20;84.40;;;;;;6219826;28;88374;-64
2022/07/11 06:06:18;;;;;;;5.97;2.88;;;21.20;84.50;;;;;;6227617;28;88199;-64
2022/07/11 06:09:20;;;;;;;2.38;1.80;;;21.10;85.00;;;;;;6222813;28;87955;-64
2022/07/11 06:12:23;;;;;;;1.75;1.58;;;21.20;84.80;;;;;;6220927;28;89968;-64
2022/07/11 06:15:26;;;;;;;2.20;1.65;;;21.20;84.80;;;;;;6226124;28;89301;-64
2022/07/11 06:18:28;;;;;;;2.72;1.77;;;21.20;85.00;;;;;;6227086;28;89276;-64
2022/07/11 06:21:30;;;;;;;6.03;2.05;;;21.20;85.20;;;;;;6232916;28;89100;-64
2022/07/11 06:24:32;;;;;;;2.55;1.65;;;21.20;85.40;;;;;;6226023;28;89448;-64
2022/07/11 06:27:35;;;;;;;2.10;1.65;;;21.20;85.50;;;;;;6224661;28;89415;-64
2022/07/11 06:30:37;;;;;;;1.95;1.58;;;21.20;85.50;;;;;;6227125;28;89083;-64
2022/07/11 06:33:39;;;;;;;2.83;1.70;;;21.20;85.50;;;;;;6223371;28;88687;-64
2022/07/11 06:36:41;;;;;;;3.53;2.10;;;21.20;85.60;;;;;;6223373;28;89159;-64
2022/07/11 06:39:43;;;;;;;2.25;1.55;;;21.20;85.70;;;;;;6228588;28;89199;-64
2022/07/11 06:42:46;;;;;;;2.35;1.50;;;21.20;85.70;;;;;;6209366;28;90382;-64
2022/07/11 06:45:49;;;;;;;2.63;1.73;;;21.20;85.80;;;;;;6207976;28;89378;-64
2022/07/11 06:48:50;;;;;;;3.10;1.60;;;21.20;86.00;;;;;;6217233;28;88107;-64
2022/07/11 06:51:52;;;;;;;2.08;1.48;;;21.20;86.10;;;;;;6234281;28;89254;-64
2022/07/11 06:54:54;;;;;;;2.00;1.50;;;21.20;86.00;;;;;;6232872;28;88793;-64
2022/07/11 06:57:58;;;;;;;1.58;1.30;;;21.20;86.10;;;;;;6232820;28;89055;-64
2022/07/11 07:01:01;;;;;;;4.18;1.88;;;21.20;86.30;;;;;;6221154;28;89070;-64
2022/07/11 07:04:03;;;;;;;3.03;1.50;;;21.20;86.30;;;;;;6218601;28;88314;-64
2022/07/11 07:07:05;;;;;;;3.35;1.88;;;21.20;86.50;;;;;;6230294;28;89085;-64
2022/07/11 07:10:08;;;;;;;2.78;1.52;;;21.20;86.30;;;;;;6227245;28;88999;-64
2022/07/11 07:13:11;;;;;;;2.28;1.45;;;21.20;86.50;;;;;;6224625;28;89985;-64
2022/07/11 07:16:13;;;;;;;3.72;1.63;;;21.20;86.40;;;;;;6222241;28;89057;-65
2022/07/11 07:19:15;;;;;;;4.25;1.75;;;21.20;88.30;;;;;;6228514;28;89117;-65
2022/07/11 07:22:17;;;;;;;2.53;1.55;;;21.20;88.00;;;;;;6222517;28;89095;-65
2022/07/11 07:25:19;;;;;;;4.53;1.40;;;21.20;87.20;;;;;;6220506;28;89018;-65
2022/07/11 07:28:22;;;;;;;4.75;1.90;;;21.20;87.60;;;;;;6215314;28;89108;-65
2022/07/11 07:31:25;;;;;;;2.25;1.40;;;21.20;87.60;;;;;;6213036;28;88077;-65
2022/07/11 07:34:30;;;;;;;3.80;1.50;;;21.20;87.80;;;;;;6206449;28;88577;-65
2022/07/11 07:37:32;;;;;;;2.47;1.40;;;21.20;87.90;;;;;;6218311;28;88560;-65
2022/07/11 07:40:34;;;;;;;3.70;1.50;;;21.20;87.80;;;;;;6222524;28;90025;-65
2022/07/11 07:43:37;;;;;;;5.93;1.83;;;21.20;87.90;;;;;;6221783;28;90024;-65
2022/07/11 07:46:39;;;;;;;3.42;1.60;;;21.20;87.80;;;;;;6210176;28;89027;-65
2022/07/11 07:49:41;;;;;;;2.65;1.40;;;21.20;87.80;;;;;;6229238;28;89404;-65
2022/07/11 07:52:43;;;;;;;3.53;1.48;;;21.20;88.00;;;;;;6212934;28;88333;-65
2022/07/11 07:55:45;;;;;;;2.45;1.40;;;21.20;87.80;;;;;;6223013;28;89088;-65
2022/07/11 07:58:51;;;;;;;2.83;1.40;;;21.20;87.70;;;;;;6226873;28;89047;-65
2022/07/11 08:01:53;;;;;;;2.53;1.50;;;21.20;87.70;;;;;;6233631;28;88869;-65
2022/07/11 08:04:55;;;;;;;2.80;1.52;;;21.20;87.60;;;;;;6231119;28;88369;-65
2022/07/11 08:07:57;;;;;;;2.95;1.30;;;21.20;87.70;;;;;;6234277;28;89086;-65
2022/07/11 08:11:01;;;;;;;3.17;1.48;;;21.20;87.30;;;;;;6229919;28;89181;-65
2022/07/11 08:14:07;;;;;;;2.75;1.30;;;21.20;87.20;;;;;;6230795;28;90974;-65
2022/07/11 08:17:09;;;;;;;4.05;1.80;;;21.20;87.70;;;;;;6214563;28;89057;-66
2022/07/11 08:20:12;;;;;;;3.67;1.50;;;21.20;88.70;;;;;;6229489;28;89524;-66
2022/07/11 08:23:14;;;;;;;4.30;1.70;;;21.20;87.80;;;;;;6222792;28;88817;-65
2022/07/11 08:26:16;;;;;;;3.65;1.45;;;21.10;87.90;;;;;;6226252;28;89038;-66
2022/07/11 08:29:19;;;;;;;2.05;1.40;;;21.10;88.00;;;;;;6221596;28;89335;-65
2022/07/11 08:32:21;;;;;;;3.05;1.40;;;21.20;89.20;;;;;;6230712;28;89142;-65
2022/07/11 08:35:23;;;;;;;2.70;1.73;;;21.10;87.90;;;;;;6232417;28;88377;-65
2022/07/11 08:38:25;;;;;;;2.88;1.30;;;21.10;87.80;;;;;;6229368;28;89054;-65
2022/07/11 08:41:28;;;;;;;2.95;1.30;;;21.10;88.00;;;;;;6232282;28;89072;-65
2022/07/11 08:44:31;;;;;;;2.30;1.38;;;21.20;88.10;;;;;;6232432;28;90254;-65
2022/07/11 08:47:36;;;;;;;3.38;1.35;;;21.20;88.20;;;;;;6232306;28;88306;-65
2022/07/11 08:50:38;;;;;;;5.03;2.08;;;21.20;88.00;;;;;;6217863;28;89012;-66
2022/07/11 08:53:44;;;;;;;2.80;1.50;;;21.20;88.20;;;;;;6221316;28;89231;-65
2022/07/11 08:56:46;;;;;;;3.22;1.40;;;21.20;88.20;;;;;;6217628;28;89209;-65
2022/07/11 08:59:54;;;;;;;2.40;1.15;;;21.20;88.20;;;;;;6224375;28;87893;-65
2022/07/11 09:02:56;;;;;;;2.70;1.20;;;21.10;88.20;;;;;;6227259;28;89193;-65
2022/07/11 09:05:58;;;;;;;4.30;1.30;;;21.20;88.30;;;;;;6213780;28;88463;-66
2022/07/11 09:09:01;;;;;;;4.60;1.77;;;21.10;88.30;;;;;;6225945;28;89087;-65
2022/07/11 09:12:12;;;;;;;3.78;1.60;;;21.10;88.80;;;;;;6231578;28;89099;-66
2022/07/11 09:15:32;;;;;;;2.92;1.58;;;21.10;89.20;;;;;;6222111;28;89977;-66
2022/07/11 09:18:36;;;;;;;3.88;1.30;;;21.10;89.40;;;;;;6232130;28;88919;-66
2022/07/11 09:28:24;;;;;;;2.35;1.17;;;21.10;89.50;;;;;;6228166;28;87296;-65
2022/07/11 09:31:28;;;;;;;1.48;1.08;;;21.20;89.50;;;;;;6239186;28;89102;-66
2022/07/11 09:34:30;;;;;;;2.65;1.20;;;21.20;89.50;;;;;;6227937;28;89071;-66
2022/07/11 09:37:43;;;;;;;3.67;1.30;;;21.10;89.60;;;;;;6238009;28;88659;-66
2022/07/11 09:40:47;;;;;;;3.10;1.27;;;21.10;89.70;;;;;;6243516;28;89058;-66
2022/07/11 09:43:51;;;;;;;2.40;1.23;;;21.10;89.70;;;;;;6236612;28;89126;-66
2022/07/11 09:46:56;;;;;;;2.35;1.40;;;21.10;89.60;;;;;;6223693;28;90238;-66
2022/07/11 09:49:58;;;;;;;1.90;1.20;;;21.20;89.80;;;;;;6227283;28;88303;-66
2022/07/11 09:53:02;;;;;;;1.92;1.05;;;21.10;89.80;;;;;;6229512;28;89084;-66
2022/07/11 09:56:07;;;;;;;2.13;1.25;;;21.20;90.00;;;;;;6232307;28;88974;-66
2022/07/11 09:59:11;;;;;;;2.35;1.30;;;21.10;89.90;;;;;;6210324;28;90754;-64
2022/07/11 10:02:17;;;;;;;6.40;2.05;;;21.10;90.20;;;;;;6231411;28;89076;-64
2022/07/11 10:05:19;;;;;;;7.50;1.67;;;21.10;90.50;;;;;;6218713;28;89014;-64
2022/07/11 10:08:21;;;;;;;3.08;1.33;;;21.20;90.70;;;;;;6220338;28;89085;-66
2022/07/11 10:11:23;;;;;;;3.97;1.40;;;21.20;90.70;;;;;;6227512;28;89268;-65
2022/07/11 10:14:25;;;;;;;45.55;17.58;;;21.20;91.10;;;;;;6219994;28;89131;-66
2022/07/11 10:17:35;;;;;;;240.13;80.93;;;21.30;94.00;;;;;;6222231;28;88918;-66
2022/07/11 10:20:45;;;;;;;187.43;62.78;;;21.40;98.60;;;;;;6217793;28;89049;-65
2022/07/11 10:23:54;;;;;;;81.55;30.10;;;21.60;97.40;;;;;;6218169;28;89132;-66
2022/07/11 10:27:03;;;;;;;68.95;26.55;;;21.80;95.80;;;;;;6209923;28;88089;-66
2022/07/11 10:30:06;;;;;;;36.75;13.68;;;21.90;94.30;;;;;;6228250;28;88865;-66
2022/07/11 10:33:10;;;;;;;36.35;12.13;;;22.20;91.90;;;;;;6230803;28;88896;-66
2022/07/11 10:36:27;;;;;;;27.48;10.00;;;22.60;91.00;;;;;;6223804;28;89112;-66
2022/07/11 10:39:29;;;;;;;26.00;9.35;;;22.90;90.20;;;;;;6216001;28;88688;-65
2022/07/11 10:42:40;;;;;;;21.42;8.50;;;22.90;89.80;;;;;;6213295;28;89059;-65
2022/07/11 10:45:57;;;;;;;17.05;7.40;;;22.90;89.10;;;;;;6212660;28;89146;-65
2022/07/11 10:49:17;;;;;;;16.65;7.78;;;22.90;89.10;;;;;;6205999;28;90145;-65
2022/07/11 10:52:24;;;;;;;17.42;7.28;;;22.90;89.30;;;;;;6212159;28;88932;-65
2022/07/11 10:55:35;;;;;;;16.17;6.50;;;22.90;89.10;;;;;;6216100;28;89248;-65
2022/07/11 10:58:43;;;;;;;13.23;5.57;;;22.90;89.10;;;;;;6215618;28;89354;-65
2022/07/11 11:02:19;;;;;;;17.02;6.10;;;22.80;89.00;;;;;;6218209;28;88192;-65
2022/07/11 11:05:49;;;;;;;15.27;5.65;;;22.80;88.90;;;;;;6151051;28;89335;-65
2022/07/11 11:08:51;;;;;;;11.70;4.80;;;22.80;88.90;;;;;;6150181;28;89158;-65
2022/07/11 11:11:54;;;;;;;10.15;4.50;;;22.90;89.10;;;;;;6219895;28;87772;-65
2022/07/11 11:15:29;;;;;;;9.40;4.05;;;22.80;88.90;;;;;;6233909;28;89092;-65
2022/07/11 11:18:34;;;;;;;9.98;3.88;;;22.80;88.90;;;;;;6235660;27;87102;-65
2022/07/11 11:21:38;;;;;;;12.60;4.20;;;22.80;88.90;;;;;;6236731;28;90205;-65
2022/07/11 11:24:40;;;;;;;8.18;3.58;;;22.80;89.00;;;;;;6216582;28;89129;-65
2022/07/11 11:28:03;;;;;;;8.40;3.20;;;22.90;89.20;;;;;;6219677;28;89892;-65
2022/07/11 11:31:07;;;;;;;8.02;3.55;;;22.90;89.10;;;;;;6238267;28;89064;-66
2022/07/11 11:34:09;;;;;;;7.93;3.35;;;22.80;89.00;;;;;;6219120;28;88975;-65
2022/07/11 11:37:12;;;;;;;7.63;3.00;;;22.90;89.10;;;;;;6206353;28;89142;-65
2022/07/11 11:40:15;;;;;;;6.25;2.88;;;22.90;89.10;;;;;;6226653;28;88328;-66
2022/07/11 11:43:19;;;;;;;6.35;2.88;;;22.90;89.00;;;;;;6231762;28;88341;-65
2022/07/11 11:46:25;;;;;;;5.00;2.38;;;22.90;88.90;;;;;;6217496;28;89038;-65
2022/07/11 11:49:27;;;;;;;4.80;2.10;;;22.90;88.90;;;;;;6207104;28;89117;-66
2022/07/11 11:52:34;;;;;;;5.13;2.40;;;22.90;88.80;;;;;;6215198;28;89177;-66
2022/07/11 11:55:36;;;;;;;4.10;2.40;;;22.90;88.80;;;;;;6212156;28;88440;-66
2022/07/11 11:58:38;;;;;;;3.47;2.03;;;22.90;88.70;;;;;;6219280;28;89159;-65
2022/07/11 12:01:42;;;;;;;5.60;2.20;;;22.90;88.70;;;;;;6229394;28;89187;-65
2022/07/11 12:04:44;;;;;;;4.40;2.00;;;22.90;88.60;;;;;;6221492;28;89044;-65
2022/07/11 12:07:48;;;;;;;5.47;2.15;;;22.90;88.60;;;;;;6222434;28;88814;-66
2022/07/11 12:10:54;;;;;;;3.30;2.10;;;22.90;88.60;;;;;;6228619;28;89154;-66
2022/07/11 12:13:57;;;;;;;3.72;2.10;;;22.90;88.50;;;;;;6241439;28;87323;-65
2022/07/11 12:16:59;;;;;;;3.25;1.73;;;23.00;88.60;;;;;;6226632;28;87896;-65
2022/07/11 12:20:01;;;;;;;4.28;1.90;;;22.90;88.40;;;;;;6225992;28;88001;-65
2022/07/11 12:23:07;;;;;;;4.70;1.95;;;22.90;88.40;;;;;;6219325;28;89937;-65
2022/07/11 12:26:11;;;;;;;3.38;1.88;;;22.90;88.30;;;;;;6216493;28;89344;-66
2022/07/11 12:29:16;;;;;;;5.13;1.80;;;23.00;88.30;;;;;;6218248;28;89079;-65
2022/07/11 12:32:19;;;;;;;3.15;1.52;;;23.00;88.20;;;;;;6229717;28;89029;-65
2022/07/11 12:35:21;;;;;;;2.75;1.65;;;22.90;88.10;;;;;;6226664;28;87928;-65
2022/07/11 12:38:24;;;;;;;3.17;1.65;;;22.90;88.20;;;;;;6229586;28;89330;-65
2022/07/11 12:41:26;;;;;;;3.00;1.65;;;22.90;88.30;;;;;;6225742;28;88074;-65
2022/07/11 12:47:52;;;;;;;2.83;1.73;;;22.90;88.70;;;;;;6216831;28;88623;-66
2022/07/11 12:50:55;;;;;;;3.88;1.88;;;22.80;88.80;;;;;;6230210;28;89402;-66
2022/07/11 12:54:06;;;;;;;3.38;1.40;;;22.70;89.90;;;;;;6216302;28;90135;-65
2022/07/11 12:57:10;;;;;;;4.13;1.70;;;22.70;89.30;;;;;;6229866;28;88901;-65
2022/07/11 13:00:16;;;;;;;2.33;1.50;;;22.70;89.40;;;;;;6223231;28;89141;-65
2022/07/11 13:03:28;;;;;;;2.67;1.60;;;22.60;89.60;;;;;;6233150;28;89487;-65
2022/07/11 13:09:52;;;;;;;3.40;1.77;;;22.60;90.00;;;;;;6231984;28;87304;-66
2022/07/11 13:12:55;;;;;;;2.33;1.52;;;22.60;90.00;;;;;;6227686;28;89071;-65
2022/07/11 13:15:57;;;;;;;3.13;1.73;;;22.50;90.10;;;;;;6232942;28;89026;-65
2022/07/11 13:18:59;;;;;;;2.92;1.40;;;22.50;90.20;;;;;;6230456;28;88036;-65
2022/07/11 13:22:01;;;;;;;2.20;1.48;;;22.50;90.20;;;;;;6217970;28;89105;-65
2022/07/11 13:25:05;;;;;;;1.40;1.10;;;22.40;90.30;;;;;;6221829;28;90370;-66
2022/07/11 13:28:07;;;;;;;2.17;1.40;;;22.40;90.30;;;;;;6239079;28;88073;-65
2022/07/11 13:31:09;;;;;;;2.13;1.50;;;22.40;90.40;;;;;;6227553;28;89580;-66
2022/07/11 13:34:11;;;;;;;1.30;1.10;;;22.40;90.40;;;;;;6231771;28;89001;-65
2022/07/11 13:37:13;;;;;;;1.75;1.33;;;22.40;90.40;;;;;;6223991;28;89145;-65
2022/07/11 13:40:19;;;;;;;5.75;2.08;;;22.30;90.50;;;;;;6222734;28;89242;-65
2022/07/11 13:43:21;;;;;;;2.78;1.23;;;22.40;90.50;;;;;;6219115;28;88986;-65
2022/07/11 13:46:23;;;;;;;2.15;1.30;;;22.30;90.60;;;;;;6230932;28;88359;-65
2022/07/11 13:49:25;;;;;;;1.27;1.17;;;22.30;90.60;;;;;;6220195;28;89610;-65
2022/07/11 13:52:27;;;;;;;2.28;1.30;;;22.40;90.60;;;;;;6230608;28;88950;-65
2022/07/11 13:55:31;;;;;;;1.77;1.30;;;22.30;90.60;;;;;;6218916;28;90265;-65
2022/07/11 13:58:33;;;;;;;1.77;1.30;;;22.30;90.70;;;;;;6223294;28;88021;-65
2022/07/11 14:01:35;;;;;;;3.38;1.60;;;22.30;90.70;;;;;;6224283;28;89106;-65
2022/07/11 14:04:37;;;;;;;2.45;1.52;;;22.30;90.80;;;;;;6221655;28;89033;-65
2022/07/11 14:07:39;;;;;;;3.08;1.63;;;22.30;90.80;;;;;;6222094;28;87999;-65
2022/07/11 14:10:43;;;;;;;2.78;1.20;;;22.30;90.80;;;;;;6231406;28;88150;-65
2022/07/11 14:13:45;;;;;;;2.88;1.35;;;22.20;90.80;;;;;;6235306;28;89294;-65
2022/07/11 14:16:47;;;;;;;3.08;1.58;;;22.20;90.80;;;;;;6224608;28;88347;-65
2022/07/11 14:19:49;;;;;;;2.22;1.45;;;22.20;91.00;;;;;;6215639;28;89402;-65
2022/07/11 14:22:51;;;;;;;1.48;1.17;;;22.20;91.00;;;;;;6219561;28;89409;-65
2022/07/11 14:25:55;;;;;;;1.80;1.25;;;22.10;91.00;;;;;;6230156;28;90027;-65
2022/07/11 14:28:57;;;;;;;2.10;1.35;;;22.10;91.00;;;;;;6233531;28;87980;-65
2022/07/11 14:31:59;;;;;;;3.10;1.30;;;22.10;91.00;;;;;;6222469;28;88827;-66
2022/07/11 14:35:01;;;;;;;1.60;1.20;;;22.10;91.10;;;;;;6215123;28;88988;-66
2022/07/11 14:38:03;;;;;;;1.45;1.20;;;22.10;91.00;;;;;;6225110;28;89617;-65
2022/07/11 14:41:08;;;;;;;1.33;1.05;;;22.10;91.10;;;;;;6225616;28;89058;-66
2022/07/11 14:44:10;;;;;;;1.52;1.08;;;22.10;91.10;;;;;;6229604;28;88909;-65
2022/07/11 14:47:12;;;;;;;1.65;1.00;;;22.10;91.20;;;;;;6231549;28;88435;-65
2022/07/11 14:50:14;;;;;;;2.05;1.30;;;22.10;91.20;;;;;;6227918;28;87980;-66
2022/07/11 14:53:16;;;;;;;2.55;1.40;;;22.10;91.30;;;;;;6221473;28;89099;-66
2022/07/11 14:56:19;;;;;;;1.65;1.20;;;22.00;91.40;;;;;;6229781;28;89990;-65
2022/07/11 14:59:21;;;;;;;2.03;1.35;;;22.10;91.40;;;;;;6223157;28;89271;-65
2022/07/11 15:05:39;;;;;;;2.15;1.33;;;22.10;91.50;;;;;;6216140;28;88989;-66
2022/07/11 15:12:21;;;;;;;1.70;1.20;;;22.00;91.50;;;;;;6242397;28;87603;-66
2022/07/11 15:15:23;;;;;;;1.10;0.90;;;22.00;91.60;;;;;;6218132;28;89128;-66
2022/07/11 15:18:25;;;;;;;1.48;1.10;;;22.00;92.00;;;;;;6221287;28;88354;-66
2022/07/11 15:21:28;;;;;;;3.90;2.03;;;22.00;91.60;;;;;;6215158;28;89229;-66
2022/07/11 15:24:30;;;;;;;1.60;1.10;;;22.00;91.60;;;;;;6230610;28;89421;-65
2022/07/11 15:27:33;;;;;;;2.40;1.23;;;22.00;91.60;;;;;;6230673;28;90080;-66
2022/07/11 15:30:35;;;;;;;1.23;1.13;;;22.00;91.60;;;;;;6230428;28;89034;-66
2022/07/11 15:33:37;;;;;;;1.23;1.00;;;22.00;91.60;;;;;;6229595;28;89295;-66
2022/07/11 15:36:39;;;;;;;1.25;1.10;;;22.00;91.70;;;;;;6227303;28;89147;-65
2022/07/11 15:39:41;;;;;;;1.83;1.20;;;22.00;91.70;;;;;;6231448;28;89115;-66
2022/07/11 15:42:45;;;;;;;1.20;1.10;;;22.00;91.70;;;;;;6222292;28;89156;-66
2022/07/11 15:45:47;;;;;;;1.30;1.20;;;22.00;91.70;;;;;;6224231;28;89071;-66
2022/07/11 15:48:49;;;;;;;1.38;1.25;;;22.00;92.10;;;;;;6224141;28;87335;-66
2022/07/11 15:51:52;;;;;;;1.90;1.40;;;21.90;92.00;;;;;;6211086;28;88966;-67
2022/07/11 15:54:54;;;;;;;1.35;1.15;;;21.90;91.60;;;;;;6216258;28;89062;-67
2022/07/11 15:57:57;;;;;;;1.17;1.08;;;21.90;91.70;;;;;;6221217;28;90033;-67
2022/07/11 16:01:00;;;;;;;2.85;1.60;;;21.90;91.70;;;;;;6220241;28;89036;-67
2022/07/11 16:04:03;;;;;;;2.17;1.23;;;21.90;91.80;;;;;;6213674;28;88986;-66
2022/07/11 16:07:05;;;;;;;2.13;1.20;;;21.90;91.80;;;;;;6217894;28;89033;-66
2022/07/11 16:10:09;;;;;;;1.60;1.17;;;21.90;91.90;;;;;;6235421;28;89201;-66
2022/07/11 16:13:12;;;;;;;2.42;1.42;;;21.90;92.00;;;;;;6227855;28;88973;-66